Terminal Aerodrome Forecast
Issued by NWS Billings, MT

Home | Current Version | Previous Version | Text Only | Print | Product List | Glossary Off
Versions: 1 2 3 4 5 6 7 8 9 10 11 12

000
FTUS45 KBYZ 161720
TAFMLS
TAF
KMLS 161720Z 1618/1718 16009KT P6SM FEW120 SCT200
     FM170300 23009KT P6SM VCSH SCT100 BKN200=

USA.gov is the U.S. government's official web portal to all federal, state and local government web resources and services.